Time;durP1;ratioP1;P1;durP2;ratioP2;P2;SDS_P1;SDS_P2;PMS_P1;PMS_P2;Temp;Humidity;BMP_temperature;BMP_pressure;BME280_temperature;BME280_humidity;BME280_pressure;Samples;Min_cycle;Max_cycle;Signal;HPM_P1;HPM_P2
2021/09/22 00:02:19;;;;;;;2.80;1.10;;;;;;;;;;7388565;19;20109;-63
2021/09/22 00:04:47;;;;;;;2.72;1.45;;;;;;;;;;7387294;19;20039;-55
2021/09/22 00:07:15;;;;;;;1.83;1.10;;;;;;;;;;7392104;19;20018;-54
2021/09/22 00:09:42;;;;;;;2.55;1.25;;;;;;;;;;7388302;19;20483;-53
2021/09/22 00:12:10;;;;;;;2.85;1.70;;;;;;;;;;7385926;19;20015;-52
2021/09/22 00:14:37;;;;;;;2.20;1.20;;;;;;;;;;7388223;19;20014;-62
2021/09/22 00:17:05;;;;;;;2.72;2.00;;;;;;;;;;7388511;19;20295;-57
2021/09/22 00:19:32;;;;;;;2.67;1.30;;;;;;;;;;7390825;19;20015;-60
2021/09/22 00:22:00;;;;;;;2.97;1.50;;;;;;;;;;7386151;19;20018;-58
2021/09/22 00:24:27;;;;;;;1.73;1.20;;;;;;;;;;7387721;19;20018;-50
2021/09/22 00:26:55;;;;;;;3.40;1.25;;;;;;;;;;7387386;19;20600;-60
2021/09/22 00:29:22;;;;;;;2.28;1.30;;;;;;;;;;7387159;19;20031;-57
2021/09/22 00:31:49;;;;;;;2.85;1.30;;;;;;;;;;7392185;19;20011;-64
2021/09/22 00:34:17;;;;;;;3.08;1.77;;;;;;;;;;7393940;19;20017;-50
2021/09/22 00:36:46;;;;;;;2.63;1.33;;;;;;;;;;7393368;19;20115;-58
2021/09/22 00:39:13;;;;;;;2.70;1.48;;;;;;;;;;7394943;19;20017;-51
2021/09/22 00:41:41;;;;;;;4.45;1.20;;;;;;;;;;7392512;19;20010;-62
2021/09/22 00:44:09;;;;;;;2.63;1.40;;;;;;;;;;7392209;19;20035;-54
2021/09/22 00:46:37;;;;;;;2.83;1.00;;;;;;;;;;7392576;19;20018;-54
2021/09/22 00:49:04;;;;;;;5.38;1.92;;;;;;;;;;7390756;19;20077;-54
2021/09/22 00:51:38;;;;;;;3.75;1.33;;;;;;;;;;7391646;19;20014;-50
2021/09/22 00:54:06;;;;;;;2.30;1.40;;;;;;;;;;7394873;19;20015;-58
2021/09/22 00:56:34;;;;;;;4.03;1.70;;;;;;;;;;7393554;19;20011;-51
2021/09/22 00:59:01;;;;;;;2.13;1.40;;;;;;;;;;7392812;19;20029;-62
2021/09/22 01:01:31;;;;;;;2.50;1.45;;;;;;;;;;7393108;19;20085;-55
2021/09/22 01:04:01;;;;;;;3.10;1.80;;;;;;;;;;7390835;19;20010;-59
2021/09/22 01:06:28;;;;;;;2.22;1.33;;;;;;;;;;7396322;19;20040;-60
2021/09/22 01:08:57;;;;;;;2.08;1.30;;;;;;;;;;7391716;19;20006;-54
2021/09/22 01:11:28;;;;;;;2.20;1.25;;;;;;;;;;7391876;19;20500;-60
2021/09/22 01:13:55;;;;;;;3.30;1.40;;;;;;;;;;7389762;19;20043;-53
2021/09/22 01:16:23;;;;;;;2.25;1.25;;;;;;;;;;7392341;19;20014;-59
2021/09/22 01:18:53;;;;;;;1.95;1.17;;;;;;;;;;7390928;19;20081;-57
2021/09/22 01:21:21;;;;;;;2.30;1.45;;;;;;;;;;7392074;19;20006;-56
2021/09/22 01:23:56;;;;;;;3.85;1.38;;;;;;;;;;7391542;19;20010;-52
2021/09/22 01:26:24;;;;;;;3.00;1.65;;;;;;;;;;7392235;19;20017;-53
2021/09/22 01:28:52;;;;;;;2.38;1.40;;;;;;;;;;7390360;19;20029;-54
2021/09/22 01:31:20;;;;;;;2.75;1.40;;;;;;;;;;7393133;19;20022;-57
2021/09/22 01:33:48;;;;;;;1.83;1.27;;;;;;;;;;7391214;19;20585;-56
2021/09/22 01:36:27;;;;;;;1.63;1.13;;;;;;;;;;7393388;19;20011;-55
2021/09/22 01:38:59;;;;;;;2.15;1.20;;;;;;;;;;7391221;19;20011;-54
2021/09/22 01:41:27;;;;;;;2.00;1.40;;;;;;;;;;7389551;19;20014;-56
2021/09/22 01:43:59;;;;;;;3.38;1.83;;;;;;;;;;7391600;19;20360;-57
2021/09/22 01:46:46;;;;;;;1.92;1.20;;;;;;;;;;7390152;19;20289;-53
2021/09/22 01:49:22;;;;;;;2.45;1.83;;;;;;;;;;7390023;19;20011;-57
2021/09/22 01:52:01;;;;;;;2.55;1.55;;;;;;;;;;7385542;19;20102;-57
2021/09/22 01:54:34;;;;;;;2.40;1.30;;;;;;;;;;7391065;19;20029;-55
2021/09/22 01:57:04;;;;;;;3.00;1.40;;;;;;;;;;7389096;19;20019;-57
2021/09/22 01:59:32;;;;;;;2.90;1.65;;;;;;;;;;7390778;19;20010;-57
2021/09/22 02:02:29;;;;;;;2.38;1.33;;;;;;;;;;7392278;19;20015;-56
2021/09/22 02:05:22;;;;;;;;;;;;;;;;;;7392643;19;20038;-59
2021/09/22 02:08:22;;;;;;;2.47;1.08;;;;;;;;;;7391564;19;20337;-51
2021/09/22 02:10:56;;;;;;;7.13;2.17;;;;;;;;;;7389601;19;20021;-55
2021/09/22 02:13:23;;;;;;;2.63;1.40;;;;;;;;;;7384171;19;20018;-56
2021/09/22 02:15:52;;;;;;;2.75;1.70;;;;;;;;;;7390643;19;20026;-62
2021/09/22 02:18:46;;;;;;;2.67;1.38;;;;;;;;;;7389694;19;20010;-53
2021/09/22 02:21:15;;;;;;;1.77;1.23;;;;;;;;;;7389496;19;20011;-64
2021/09/22 02:23:42;;;;;;;3.85;1.25;;;;;;;;;;7388789;19;20199;-57
2021/09/22 02:26:10;;;;;;;2.08;1.40;;;;;;;;;;7389419;19;20019;-57
2021/09/22 02:28:40;;;;;;;4.90;2.03;;;;;;;;;;7388746;19;20463;-52
2021/09/22 02:31:08;;;;;;;2.75;1.60;;;;;;;;;;7388832;19;20014;-54
2021/09/22 02:33:59;;;;;;;2.75;1.63;;;;;;;;;;7387358;19;20021;-61
2021/09/22 02:36:27;;;;;;;2.45;1.50;;;;;;;;;;7388642;19;20537;-54
2021/09/22 02:39:01;;;;;;;3.17;1.83;;;;;;;;;;7389054;19;20018;-55
2021/09/22 02:41:31;;;;;;;3.00;1.75;;;;;;;;;;7389874;19;20010;-63
2021/09/22 02:44:00;;;;;;;3.00;1.50;;;;;;;;;;7389313;19;20022;-58
2021/09/22 02:46:40;;;;;;;3.72;1.85;;;;;;;;;;7388299;19;20014;-63
2021/09/22 02:49:08;;;;;;;3.38;1.75;;;;;;;;;;7389726;19;20038;-61
2021/09/22 02:51:36;;;;;;;2.95;1.55;;;;;;;;;;7388520;19;20014;-60
2021/09/22 02:54:03;;;;;;;2.83;1.63;;;;;;;;;;7384847;19;20014;-64
2021/09/22 02:56:37;;;;;;;3.10;1.75;;;;;;;;;;7389326;19;20007;-53
2021/09/22 02:59:05;;;;;;;3.80;1.48;;;;;;;;;;7388701;19;20034;-60
2021/09/22 03:01:32;;;;;;;2.10;1.20;;;;;;;;;;7387152;19;20011;-53
2021/09/22 03:04:00;;;;;;;3.30;2.00;;;;;;;;;;7388045;19;20556;-69
2021/09/22 03:06:46;;;;;;;7.10;3.70;;;;;;;;;;7389965;19;20094;-54
2021/09/22 03:09:19;;;;;;;3.38;1.83;;;;;;;;;;7388407;19;20014;-52
2021/09/22 03:11:48;;;;;;;4.85;2.20;;;;;;;;;;7387500;19;20010;-58
2021/09/22 03:14:15;;;;;;;3.78;2.13;;;;;;;;;;7385727;19;20018;-56
2021/09/22 03:16:49;;;;;;;3.05;1.80;;;;;;;;;;7386777;19;20114;-63
2021/09/22 03:19:17;;;;;;;4.53;1.98;;;;;;;;;;7384661;19;20367;-57
2021/09/22 03:21:44;;;;;;;3.58;2.30;;;;;;;;;;7388045;19;20093;-55
2021/09/22 03:24:12;;;;;;;4.43;1.95;;;;;;;;;;7387532;19;20085;-56
2021/09/22 03:26:41;;;;;;;2.80;1.67;;;;;;;;;;7390813;19;20313;-57
2021/09/22 03:29:09;;;;;;;2.78;1.67;;;;;;;;;;7386757;19;20705;-56
2021/09/22 03:31:39;;;;;;;5.10;2.20;;;;;;;;;;7384137;19;20018;-56
2021/09/22 03:34:07;;;;;;;2.60;1.70;;;;;;;;;;7386535;19;20475;-57
2021/09/22 03:36:35;;;;;;;2.65;1.38;;;;;;;;;;7388516;19;20515;-56
2021/09/22 03:39:02;;;;;;;2.75;1.67;;;;;;;;;;7391520;19;20486;-59
2021/09/22 03:41:30;;;;;;;3.58;1.50;;;;;;;;;;7389146;19;20045;-58
2021/09/22 03:43:58;;;;;;;2.40;1.40;;;;;;;;;;7389054;19;20034;-55
2021/09/22 03:46:26;;;;;;;4.53;2.28;;;;;;;;;;7388708;19;20018;-66
2021/09/22 03:48:53;;;;;;;9.70;4.72;;;;;;;;;;7387395;19;20015;-58
2021/09/22 03:51:21;;;;;;;5.47;2.42;;;;;;;;;;7389098;19;20508;-58
2021/09/22 03:53:52;;;;;;;3.13;1.98;;;;;;;;;;7386702;19;20034;-59
2021/09/22 03:56:20;;;;;;;2.92;1.70;;;;;;;;;;7388527;19;20021;-57
2021/09/22 03:58:48;;;;;;;3.28;1.90;;;;;;;;;;7388253;19;20042;-59
2021/09/22 04:01:16;;;;;;;3.63;2.28;;;;;;;;;;7388708;19;20010;-64
2021/09/22 04:03:45;;;;;;;3.95;2.17;;;;;;;;;;7388967;19;20015;-58
2021/09/22 04:06:13;;;;;;;7.25;2.22;;;;;;;;;;7398475;19;20129;-60
2021/09/22 04:08:41;;;;;;;2.65;1.80;;;;;;;;;;7396008;19;20096;-57
2021/09/22 04:11:08;;;;;;;6.78;2.72;;;;;;;;;;7395238;19;20021;-54
2021/09/22 04:13:38;;;;;;;4.28;2.22;;;;;;;;;;7393614;19;20010;-57
2021/09/22 04:16:08;;;;;;;4.90;2.20;;;;;;;;;;7396663;19;20018;-58
2021/09/22 04:18:37;;;;;;;7.10;2.30;;;;;;;;;;7396026;19;20483;-60
2021/09/22 04:21:07;;;;;;;7.25;2.80;;;;;;;;;;7399809;19;20014;-63
2021/09/22 04:23:35;;;;;;;4.68;2.45;;;;;;;;;;7396962;19;20045;-59
2021/09/22 04:26:02;;;;;;;9.27;3.95;;;;;;;;;;7397871;19;20007;-53
2021/09/22 04:28:31;;;;;;;10.73;4.90;;;;;;;;;;7394866;19;20578;-54
2021/09/22 04:31:17;;;;;;;18.67;6.90;;;;;;;;;;7396971;19;20017;-56
2021/09/22 04:34:03;;;;;;;14.02;8.15;;;;;;;;;;7394916;19;20018;-54
2021/09/22 04:36:49;;;;;;;13.00;6.88;;;;;;;;;;7396438;19;20013;-54
2021/09/22 04:39:35;;;;;;;21.10;6.97;;;;;;;;;;7397535;19;20021;-56
2021/09/22 04:42:21;;;;;;;17.00;5.47;;;;;;;;;;7396603;19;20366;-56
2021/09/22 04:45:13;;;;;;;24.48;10.13;;;;;;;;;;7394217;19;20010;-66
2021/09/22 04:48:00;;;;;;;17.10;6.15;;;;;;;;;;7394605;19;20351;-60
2021/09/22 04:50:54;;;;;;;19.58;4.53;;;;;;;;;;7394847;19;20479;-57
2021/09/22 04:53:41;;;;;;;10.73;4.15;;;;;;;;;;7394891;19;20490;-59
2021/09/22 04:56:27;;;;;;;14.75;4.35;;;;;;;;;;7396517;19;20542;-56
2021/09/22 04:59:13;;;;;;;8.85;5.05;;;;;;;;;;7396586;19;20021;-54
2021/09/22 05:01:58;;;;;;;12.05;4.90;;;;;;;;;;7396234;19;20021;-64
2021/09/22 05:04:45;;;;;;;10.57;3.97;;;;;;;;;;7395217;19;20017;-60
2021/09/22 05:07:30;;;;;;;12.05;5.82;;;;;;;;;;7399525;19;20024;-56
2021/09/22 05:10:16;;;;;;;12.13;3.85;;;;;;;;;;7396338;19;20017;-58
2021/09/22 05:13:02;;;;;;;7.13;3.15;;;;;;;;;;7394648;19;20107;-58
2021/09/22 05:15:49;;;;;;;6.53;2.65;;;;;;;;;;7393864;19;20013;-54
2021/09/22 05:18:36;;;;;;;3.90;2.15;;;;;;;;;;7395889;19;20051;-54
2021/09/22 05:21:22;;;;;;;21.10;4.15;;;;;;;;;;7395648;19;20022;-53
2021/09/22 05:24:08;;;;;;;13.48;3.15;;;;;;;;;;7395777;19;20017;-55
2021/09/22 05:26:55;;;;;;;35.08;4.45;;;;;;;;;;7393128;19;20009;-58
2021/09/22 05:29:42;;;;;;;35.22;4.13;;;;;;;;;;7395219;19;20013;-53
2021/09/22 05:32:27;;;;;;;4.10;2.25;;;;;;;;;;7394924;19;20390;-52
2021/09/22 05:35:17;;;;;;;9.95;4.00;;;;;;;;;;7391377;19;20011;-53
2021/09/22 05:38:04;;;;;;;22.65;6.13;;;;;;;;;;7390404;19;20021;-58
2021/09/22 05:40:50;;;;;;;39.85;7.28;;;;;;;;;;7395688;19;20498;-57
2021/09/22 05:43:36;;;;;;;16.40;4.00;;;;;;;;;;7395491;19;20017;-55
2021/09/22 05:46:22;;;;;;;20.27;5.45;;;;;;;;;;7394743;19;20013;-56
2021/09/22 05:49:21;;;;;;;21.98;5.00;;;;;;;;;;7392425;19;20074;-64
2021/09/22 05:52:25;;;;;;;28.30;4.85;;;;;;;;;;7390258;19;20024;-56
2021/09/22 05:55:11;;;;;;;30.67;4.15;;;;;;;;;;7393743;19;20017;-58
2021/09/22 05:57:58;;;;;;;20.38;2.75;;;;;;;;;;7394434;19;20545;-62
2021/09/22 06:00:44;;;;;;;14.25;2.55;;;;;;;;;;7394061;19;20021;-63
2021/09/22 06:03:29;;;;;;;14.50;2.22;;;;;;;;;;7393912;19;20492;-56
2021/09/22 06:06:16;;;;;;;27.23;2.92;;;;;;;;;;7396047;19;20026;-60
2021/09/22 06:09:09;;;;;;;20.83;2.73;;;;;;;;;;7393277;19;20007;-56
2021/09/22 06:11:50;;;;;;;6.32;2.13;;;;;;;;;;7391462;19;20259;-55
2021/09/22 06:14:17;;;;;;;13.02;1.85;;;;;;;;;;7391976;19;20028;-56
2021/09/22 06:16:45;;;;;;;11.38;2.15;;;;;;;;;;7392605;19;20015;-57
2021/09/22 06:19:25;;;;;;;25.13;2.45;;;;;;;;;;7391840;19;20014;-57
2021/09/22 06:21:52;;;;;;;23.23;2.85;;;;;;;;;;7394195;19;20018;-55
2021/09/22 06:24:38;;;;;;;18.80;2.72;;;;;;;;;;7391776;19;20025;-57
2021/09/22 06:27:15;;;;;;;23.35;3.10;;;;;;;;;;7390488;19;20495;-56
2021/09/22 06:29:46;;;;;;;14.07;2.28;;;;;;;;;;7390438;19;20019;-52
2021/09/22 06:32:13;;;;;;;7.30;2.10;;;;;;;;;;7392636;19;20013;-58
2021/09/22 06:34:59;;;;;;;13.70;2.22;;;;;;;;;;7390881;19;20025;-55
2021/09/22 06:37:49;;;;;;;23.10;3.90;;;;;;;;;;7390659;19;20019;-53
2021/09/22 06:40:21;;;;;;;23.45;2.67;;;;;;;;;;7391046;19;20040;-53
2021/09/22 06:42:52;;;;;;;13.90;2.00;;;;;;;;;;7391129;19;20086;-59
2021/09/22 06:45:20;;;;;;;24.65;2.42;;;;;;;;;;7392542;19;20010;-51
2021/09/22 06:47:51;;;;;;;8.73;1.95;;;;;;;;;;7392591;19;20014;-53
2021/09/22 06:50:19;;;;;;;36.78;3.80;;;;;;;;;;7392844;19;20014;-56
2021/09/22 06:52:46;;;;;;;63.15;4.13;;;;;;;;;;7392804;19;20030;-56
2021/09/22 06:55:14;;;;;;;42.30;3.38;;;;;;;;;;7392130;19;20038;-55
2021/09/22 06:57:43;;;;;;;31.13;2.95;;;;;;;;;;7392135;19;20010;-56
2021/09/22 07:00:13;;;;;;;29.90;2.60;;;;;;;;;;7391776;19;20474;-58
2021/09/22 07:02:41;;;;;;;44.85;3.28;;;;;;;;;;7390301;19;20042;-56
2021/09/22 07:05:12;;;;;;;31.85;2.80;;;;;;;;;;7392728;19;20007;-56
2021/09/22 07:07:40;;;;;;;26.85;3.08;;;;;;;;;;7391269;19;20006;-58
2021/09/22 07:10:08;;;;;;;27.98;2.47;;;;;;;;;;7392241;19;20018;-58
2021/09/22 07:12:35;;;;;;;5.82;2.05;;;;;;;;;;7391887;19;20007;-59
2021/09/22 07:15:03;;;;;;;44.53;2.90;;;;;;;;;;7390278;19;20014;-57
2021/09/22 07:17:30;;;;;;;45.28;3.17;;;;;;;;;;7391862;19;20027;-62
2021/09/22 07:19:58;;;;;;;13.27;2.70;;;;;;;;;;7392008;19;20046;-61
2021/09/22 07:22:26;;;;;;;32.05;3.03;;;;;;;;;;7392022;19;20014;-58
2021/09/22 07:24:54;;;;;;;14.43;2.78;;;;;;;;;;7391309;19;20029;-59
2021/09/22 07:27:21;;;;;;;9.60;2.50;;;;;;;;;;7391735;19;20038;-56
2021/09/22 07:29:49;;;;;;;6.68;2.70;;;;;;;;;;7390955;19;20030;-57
2021/09/22 07:32:18;;;;;;;29.20;4.63;;;;;;;;;;7391044;19;20495;-58
2021/09/22 07:34:46;;;;;;;12.63;3.88;;;;;;;;;;7388448;19;20041;-60
2021/09/22 07:37:17;;;;;;;12.02;4.05;;;;;;;;;;7390277;19;20015;-58
2021/09/22 07:39:46;;;;;;;6.07;3.15;;;;;;;;;;7390030;19;20014;-52
2021/09/22 07:42:14;;;;;;;5.88;3.30;;;;;;;;;;7390857;19;20027;-58
2021/09/22 07:44:46;;;;;;;10.80;3.00;;;;;;;;;;7390884;19;20011;-58
2021/09/22 07:47:14;;;;;;;5.38;2.38;;;;;;;;;;7390711;19;20015;-58
2021/09/22 07:49:43;;;;;;;8.43;2.85;;;;;;;;;;7390948;19;20036;-65
2021/09/22 07:52:11;;;;;;;5.25;2.72;;;;;;;;;;7391135;19;20041;-60
2021/09/22 07:54:39;;;;;;;7.70;2.70;;;;;;;;;;7390088;19;20010;-58
2021/09/22 07:57:07;;;;;;;4.93;2.92;;;;;;;;;;7391126;19;20006;-57
2021/09/22 07:59:34;;;;;;;5.90;3.05;;;;;;;;;;7388779;19;20070;-56
2021/09/22 08:02:03;;;;;;;4.63;2.72;;;;;;;;;;7390170;19;20018;-59
2021/09/22 08:04:30;;;;;;;4.50;2.50;;;;;;;;;;7389800;19;20613;-59
2021/09/22 08:06:59;;;;;;;4.07;2.50;;;;;;;;;;7394415;19;20022;-58
2021/09/22 08:09:27;;;;;;;4.57;2.58;;;;;;;;;;7390156;19;20029;-60
2021/09/22 08:11:54;;;;;;;4.43;2.50;;;;;;;;;;7390074;19;20062;-58
2021/09/22 08:14:34;;;;;;;3.55;2.13;;;;;;;;;;7388703;19;20115;-57
2021/09/22 08:17:03;;;;;;;3.75;2.40;;;;;;;;;;7389872;19;20011;-58
2021/09/22 08:19:33;;;;;;;4.07;2.60;;;;;;;;;;7390897;19;20025;-59
2021/09/22 08:22:00;;;;;;;4.10;2.40;;;;;;;;;;7393404;19;20626;-57
2021/09/22 08:24:28;;;;;;;3.40;2.05;;;;;;;;;;7389684;19;20487;-58
2021/09/22 08:26:56;;;;;;;3.50;2.40;;;;;;;;;;7389556;19;20479;-66
2021/09/22 08:29:24;;;;;;;3.35;2.05;;;;;;;;;;7389715;19;20022;-58
2021/09/22 08:31:52;;;;;;;3.65;2.20;;;;;;;;;;7389594;19;20018;-58
2021/09/22 08:34:20;;;;;;;3.25;2.10;;;;;;;;;;7388233;19;20372;-58
2021/09/22 08:36:48;;;;;;;2.97;1.75;;;;;;;;;;7388909;19;20506;-56
2021/09/22 08:39:16;;;;;;;3.10;2.05;;;;;;;;;;7389585;19;20082;-58
2021/09/22 08:41:45;;;;;;;3.15;1.80;;;;;;;;;;7389476;19;20006;-58
2021/09/22 08:44:14;;;;;;;2.58;1.65;;;;;;;;;;7388989;19;20014;-57
2021/09/22 08:46:44;;;;;;;2.63;1.80;;;;;;;;;;7389142;19;20017;-57
2021/09/22 08:49:14;;;;;;;2.55;1.50;;;;;;;;;;7389302;19;20019;-56
2021/09/22 08:51:55;;;;;;;2.33;1.60;;;;;;;;;;7391669;19;20014;-55
2021/09/22 08:54:22;;;;;;;4.30;1.52;;;;;;;;;;7394462;19;20414;-55
2021/09/22 08:56:50;;;;;;;2.63;1.55;;;;;;;;;;7395993;19;20027;-60
2021/09/22 08:59:17;;;;;;;2.17;1.60;;;;;;;;;;7396385;19;20011;-56
2021/09/22 09:02:03;;;;;;;3.13;1.90;;;;;;;;;;7395945;19;20074;-54
2021/09/22 09:04:32;;;;;;;2.50;1.70;;;;;;;;;;7395425;19;20031;-58
2021/09/22 09:06:59;;;;;;;3.63;1.85;;;;;;;;;;7399411;19;20523;-58
2021/09/22 09:09:38;;;;;;;3.05;2.00;;;;;;;;;;7395445;19;20035;-58
2021/09/22 09:12:21;;;;;;;2.25;1.40;;;;;;;;;;7396811;19;20006;-57
2021/09/22 09:14:55;;;;;;;3.92;1.90;;;;;;;;;;7394245;19;20006;-57
2021/09/22 09:17:46;;;;;;;2.17;1.50;;;;;;;;;;7395451;19;20078;-58
2021/09/22 09:20:18;;;;;;;3.22;1.80;;;;;;;;;;7392717;19;20082;-56
2021/09/22 09:23:06;;;;;;;3.30;2.00;;;;;;;;;;7395544;19;20086;-55
2021/09/22 09:25:37;;;;;;;4.80;1.95;;;;;;;;;;7395471;19;20021;-56
2021/09/22 09:28:22;;;;;;;3.00;1.40;;;;;;;;;;7394808;19;20007;-56
2021/09/22 09:30:53;;;;;;;2.58;1.40;;;;;;;;;;7393896;19;20025;-57
2021/09/22 09:33:35;;;;;;;2.75;1.55;;;;;;;;;;7395425;19;20013;-57
2021/09/22 09:36:36;;;;;;;3.25;1.50;;;;;;;;;;7394925;19;20025;-58
2021/09/22 09:39:08;;;;;;;2.10;1.38;;;;;;;;;;7393293;19;20082;-58
2021/09/22 09:41:51;;;;;;;2.65;1.50;;;;;;;;;;7395547;19;20029;-57
2021/09/22 09:44:29;;;;;;;3.00;1.10;;;;;;;;;;7395082;19;20019;-57
2021/09/22 09:47:10;;;;;;;2.25;1.42;;;;;;;;;;7395467;19;20010;-65
2021/09/22 09:49:40;;;;;;;2.67;1.38;;;;;;;;;;7395496;19;20038;-62
2021/09/22 09:52:07;;;;;;;2.08;1.30;;;;;;;;;;7394880;19;20514;-58
2021/09/22 09:54:38;;;;;;;2.63;1.35;;;;;;;;;;7394680;19;20036;-56
2021/09/22 09:57:11;;;;;;;1.90;1.23;;;;;;;;;;7394338;19;20007;-60
2021/09/22 09:59:48;;;;;;;2.20;1.40;;;;;;;;;;7394643;19;20010;-57
2021/09/22 10:02:28;;;;;;;2.05;1.35;;;;;;;;;;7394091;19;20078;-68
2021/09/22 10:05:01;;;;;;;2.28;1.38;;;;;;;;;;7394409;19;20011;-67
2021/09/22 10:07:34;;;;;;;1.73;1.17;;;;;;;;;;7393747;19;20018;-56
2021/09/22 10:10:06;;;;;;;1.98;1.17;;;;;;;;;;7394333;19;20010;-57
2021/09/22 10:12:34;;;;;;;3.35;1.45;;;;;;;;;;7393857;19;20010;-59
2021/09/22 10:15:01;;;;;;;3.03;1.33;;;;;;;;;;7392569;19;20013;-63
2021/09/22 10:17:31;;;;;;;3.35;1.10;;;;;;;;;;7393990;19;20006;-57
2021/09/22 10:20:00;;;;;;;3.03;1.40;;;;;;;;;;7392750;19;20014;-60
2021/09/22 10:22:27;;;;;;;2.88;1.48;;;;;;;;;;7393539;19;20026;-60
2021/09/22 10:24:56;;;;;;;2.60;1.52;;;;;;;;;;7393050;19;20018;-57
2021/09/22 10:27:24;;;;;;;2.30;1.42;;;;;;;;;;7393110;19;20010;-59
2021/09/22 10:30:02;;;;;;;4.72;1.40;;;;;;;;;;7393569;19;20027;-59
2021/09/22 10:32:42;;;;;;;2.40;1.63;;;;;;;;;;7392950;19;20556;-57
2021/09/22 10:35:25;;;;;;;3.75;1.20;;;;;;;;;;7391869;19;20372;-59
2021/09/22 10:38:13;;;;;;;2.38;1.60;;;;;;;;;;7395638;19;20011;-59
2021/09/22 10:41:11;;;;;;;3.20;1.30;;;;;;;;;;7391652;19;20025;-65
2021/09/22 10:43:46;;;;;;;3.05;1.40;;;;;;;;;;7392456;19;20014;-59
2021/09/22 10:46:16;;;;;;;3.13;1.50;;;;;;;;;;7392504;19;20078;-60
2021/09/22 10:48:56;;;;;;;2.47;1.60;;;;;;;;;;7392688;19;20007;-58
2021/09/22 10:51:38;;;;;;;3.58;1.52;;;;;;;;;;7393036;19;20011;-58
2021/09/22 10:54:22;;;;;;;2.17;1.52;;;;;;;;;;7390484;19;20352;-58
2021/09/22 10:56:53;;;;;;;2.53;1.40;;;;;;;;;;7392539;19;20010;-58
2021/09/22 10:59:34;;;;;;;4.57;1.95;;;;;;;;;;7391819;19;20031;-60
2021/09/22 11:02:04;;;;;;;3.55;2.00;;;;;;;;;;7392019;19;20022;-56
2021/09/22 11:04:56;;;;;;;2.92;1.63;;;;;;;;;;7392331;19;20011;-58
2021/09/22 11:07:52;;;;;;;6.07;1.75;;;;;;;;;;7391871;19;20363;-61
2021/09/22 11:10:41;;;;;;;2.17;1.52;;;;;;;;;;7391564;19;20007;-58
2021/09/22 11:13:26;;;;;;;2.55;1.40;;;;;;;;;;7391457;19;20483;-59
2021/09/22 11:15:55;;;;;;;3.97;2.00;;;;;;;;;;7389671;19;20007;-59
2021/09/22 11:18:23;;;;;;;2.25;1.38;;;;;;;;;;7391294;19;20014;-56
2021/09/22 11:20:56;;;;;;;2.83;1.67;;;;;;;;;;7390294;19;20018;-59
2021/09/22 11:23:26;;;;;;;2.40;1.60;;;;;;;;;;7391629;19;20017;-58
2021/09/22 11:25:54;;;;;;;2.83;1.55;;;;;;;;;;7391482;19;20011;-59
2021/09/22 11:28:21;;;;;;;2.75;1.65;;;;;;;;;;7390882;19;20543;-57
2021/09/22 11:30:55;;;;;;;2.75;1.60;;;;;;;;;;7391010;19;20027;-59
2021/09/22 11:33:26;;;;;;;3.50;1.50;;;;;;;;;;7390954;19;20017;-57
2021/09/22 11:35:53;;;;;;;2.42;1.38;;;;;;;;;;7389557;19;20030;-59
2021/09/22 11:38:20;;;;;;;2.80;1.30;;;;;;;;;;7390185;19;20483;-54
2021/09/22 11:40:50;;;;;;;2.45;1.40;;;;;;;;;;7390020;19;20029;-57
2021/09/22 11:43:19;;;;;;;4.45;1.95;;;;;;;;;;7390822;19;20010;-57
2021/09/22 11:46:03;;;;;;;2.55;1.60;;;;;;;;;;7391096;19;20007;-57
2021/09/22 11:48:36;;;;;;;2.55;1.50;;;;;;;;;;7390533;19;20019;-56
2021/09/22 11:51:08;;;;;;;5.18;1.40;;;;;;;;;;7391010;19;20017;-55
2021/09/22 11:53:37;;;;;;;3.28;1.70;;;;;;;;;;7390725;19;20006;-59
2021/09/22 11:56:04;;;;;;;2.80;1.50;;;;;;;;;;7388816;19;20479;-56
2021/09/22 11:58:34;;;;;;;2.20;1.23;;;;;;;;;;7389404;19;20010;-57
2021/09/22 12:01:05;;;;;;;4.68;1.75;;;;;;;;;;7389645;19;20017;-57
2021/09/22 12:03:36;;;;;;;2.00;1.27;;;;;;;;;;7389929;19;20015;-57
2021/09/22 12:06:17;;;;;;;2.30;1.25;;;;;;;;;;7392931;19;20044;-53
2021/09/22 12:08:48;;;;;;;2.85;1.70;;;;;;;;;;7390204;19;20087;-58
2021/09/22 12:11:17;;;;;;;2.38;1.50;;;;;;;;;;7390019;19;20011;-54
2021/09/22 12:13:50;;;;;;;2.75;1.70;;;;;;;;;;7386707;19;20014;-58
2021/09/22 12:16:19;;;;;;;3.00;1.63;;;;;;;;;;7388206;19;20539;-56
2021/09/22 12:18:57;;;;;;;2.13;1.30;;;;;;;;;;7389780;19;20010;-60
2021/09/22 12:21:30;;;;;;;2.60;1.60;;;;;;;;;;7392234;19;20007;-67
2021/09/22 12:24:05;;;;;;;2.22;1.50;;;;;;;;;;7393417;19;20540;-68
2021/09/22 12:26:33;;;;;;;2.50;1.38;;;;;;;;;;7395077;19;20007;-69
2021/09/22 12:29:09;;;;;;;6.82;3.28;;;;;;;;;;7396521;19;20018;-61
2021/09/22 12:31:38;;;;;;;3.67;1.98;;;;;;;;;;7397456;19;20011;-62
2021/09/22 12:34:17;;;;;;;3.05;1.80;;;;;;;;;;7397366;19;20357;-56
2021/09/22 12:36:46;;;;;;;2.63;1.55;;;;;;;;;;7396732;19;20035;-68
2021/09/22 12:39:15;;;;;;;2.10;1.25;;;;;;;;;;7397314;19;20006;-59
2021/09/22 12:42:06;;;;;;;1.75;1.13;;;;;;;;;;7396639;19;20025;-61
2021/09/22 12:45:01;;;;;;;3.17;1.52;;;;;;;;;;7395045;19;20025;-69
2021/09/22 12:47:31;;;;;;;2.17;1.27;;;;;;;;;;7397103;19;20011;-61
2021/09/22 12:50:12;;;;;;;2.65;1.58;;;;;;;;;;7396357;19;20031;-68
2021/09/22 12:52:43;;;;;;;2.08;1.02;;;;;;;;;;7397064;19;20010;-66
2021/09/22 12:55:23;;;;;;;2.53;1.20;;;;;;;;;;7395533;19;20498;-66
2021/09/22 12:57:54;;;;;;;2.40;1.45;;;;;;;;;;7396483;19;20017;-60
2021/09/22 13:00:42;;;;;;;3.42;1.60;;;;;;;;;;7396500;19;20096;-59
2021/09/22 13:03:09;;;;;;;3.00;1.33;;;;;;;;;;7396793;19;20082;-63
2021/09/22 13:06:12;;;;;;;2.28;1.45;;;;;;;;;;7398161;19;20014;-52
2021/09/22 13:08:58;;;;;;;2.38;1.30;;;;;;;;;;7395504;19;20018;-61
2021/09/22 13:11:29;;;;;;;1.77;1.10;;;;;;;;;;7396033;19;20010;-58
2021/09/22 13:14:14;;;;;;;3.38;1.38;;;;;;;;;;7393993;19;20006;-65
2021/09/22 13:16:51;;;;;;;3.08;1.20;;;;;;;;;;7394110;19;20006;-56
2021/09/22 13:19:22;;;;;;;1.80;0.93;;;;;;;;;;7395623;19;20074;-63
2021/09/22 13:21:51;;;;;;;2.25;1.20;;;;;;;;;;7395452;19;20003;-67
2021/09/22 13:24:21;;;;;;;2.38;1.33;;;;;;;;;;7395595;19;20040;-66
2021/09/22 13:26:50;;;;;;;1.95;1.40;;;;;;;;;;7395245;19;20002;-68
2021/09/22 13:29:19;;;;;;;7.03;1.80;;;;;;;;;;7395243;19;20018;-68
2021/09/22 13:31:55;;;;;;;3.58;1.30;;;;;;;;;;7394257;19;20046;-55
2021/09/22 13:34:27;;;;;;;2.30;1.33;;;;;;;;;;7395102;19;20018;-62
2021/09/22 13:37:00;;;;;;;2.22;1.30;;;;;;;;;;7394150;19;20066;-62
2021/09/22 13:39:28;;;;;;;65.57;29.10;;;;;;;;;;7396119;19;20030;-56
2021/09/22 13:41:55;;;;;;;9.23;4.43;;;;;;;;;;7393039;19;20479;-52
2021/09/22 13:44:23;;;;;;;4.40;2.13;;;;;;;;;;7394489;19;20488;-56
2021/09/22 13:46:50;;;;;;;4.78;2.03;;;;;;;;;;7395869;19;20011;-56
2021/09/22 13:49:19;;;;;;;3.83;1.73;;;;;;;;;;7393004;19;20081;-58
2021/09/22 13:51:49;;;;;;;2.17;1.35;;;;;;;;;;7394729;19;20022;-57
2021/09/22 13:54:18;;;;;;;2.03;0.98;;;;;;;;;;7394536;19;20418;-52
2021/09/22 13:56:46;;;;;;;3.58;1.35;;;;;;;;;;7392133;19;20010;-54
2021/09/22 13:59:14;;;;;;;3.35;1.13;;;;;;;;;;7397876;19;20029;-60
2021/09/22 14:01:43;;;;;;;2.30;1.30;;;;;;;;;;7394701;19;20010;-54
2021/09/22 14:04:14;;;;;;;2.28;1.35;;;;;;;;;;7392672;19;20056;-65
2021/09/22 14:06:42;;;;;;;3.33;1.88;;;;;;;;;;7397367;19;20014;-58
2021/09/22 14:09:10;;;;;;;2.60;1.45;;;;;;;;;;7393904;19;20007;-66
2021/09/22 14:11:39;;;;;;;4.50;1.33;;;;;;;;;;7394169;19;20073;-66
2021/09/22 14:14:07;;;;;;;2.38;1.40;;;;;;;;;;7390815;19;20018;-65
2021/09/22 14:16:35;;;;;;;3.22;1.40;;;;;;;;;;7392571;19;20078;-63
2021/09/22 14:19:03;;;;;;;2.35;1.27;;;;;;;;;;7393791;19;20514;-65
2021/09/22 14:21:31;;;;;;;2.70;1.40;;;;;;;;;;7393535;19;20017;-56
2021/09/22 14:23:58;;;;;;;2.28;1.65;;;;;;;;;;7393441;19;20015;-67
2021/09/22 14:26:25;;;;;;;2.13;1.30;;;;;;;;;;7391258;19;20014;-60
2021/09/22 14:28:54;;;;;;;8.48;1.80;;;;;;;;;;7393824;19;20014;-65
2021/09/22 14:31:21;;;;;;;3.13;1.85;;;;;;;;;;7391668;19;20014;-56
2021/09/22 14:33:49;;;;;;;2.35;1.50;;;;;;;;;;7393065;19;20479;-67
2021/09/22 14:36:16;;;;;;;3.28;1.58;;;;;;;;;;7391115;19;20530;-62
2021/09/22 14:38:44;;;;;;;3.35;1.80;;;;;;;;;;7393084;19;20011;-68
2021/09/22 14:41:12;;;;;;;308.33;126.82;;;;;;;;;;7393260;19;20017;-68
2021/09/22 14:43:39;;;;;;;406.27;193.10;;;;;;;;;;7393926;19;20095;-70
2021/09/22 14:46:06;;;;;;;69.00;33.60;;;;;;;;;;7391632;19;20470;-66
2021/09/22 14:48:34;;;;;;;5.60;3.13;;;;;;;;;;7390592;19;20102;-66
2021/09/22 14:51:02;;;;;;;3.50;2.15;;;;;;;;;;7392680;19;20002;-66
2021/09/22 14:53:29;;;;;;;3.42;1.73;;;;;;;;;;7392344;19;20006;-63
2021/09/22 14:55:57;;;;;;;4.00;1.98;;;;;;;;;;7391357;19;20011;-66
2021/09/22 14:58:24;;;;;;;4.28;1.73;;;;;;;;;;7392635;19;20113;-56
2021/09/22 15:00:52;;;;;;;2.05;1.40;;;;;;;;;;7392252;19;20534;-65
2021/09/22 15:03:19;;;;;;;2.20;1.40;;;;;;;;;;7391989;19;20007;-66
2021/09/22 15:05:49;;;;;;;2.13;1.33;;;;;;;;;;7393884;19;20010;-66
2021/09/22 15:08:17;;;;;;;2.55;1.48;;;;;;;;;;7392314;19;20015;-66
2021/09/22 15:10:45;;;;;;;3.20;1.38;;;;;;;;;;7391793;19;20344;-62
2021/09/22 15:13:13;;;;;;;2.65;1.60;;;;;;;;;;7390989;19;20026;-59
2021/09/22 15:15:41;;;;;;;2.30;1.50;;;;;;;;;;7392450;19;20006;-65
2021/09/22 15:18:10;;;;;;;2.95;1.30;;;;;;;;;;7392453;19;20393;-59